createdAt,value
2023-05-11T00:02:15.364Z,71.25
2023-05-11T00:03:17.495Z,69.91
2023-05-11T00:04:19.654Z,68.58
2023-05-11T00:05:21.616Z,67.10
2023-05-11T00:06:23.612Z,65.97
2023-05-11T00:07:25.490Z,65.52
2023-05-11T00:08:27.342Z,65.46
2023-05-11T00:09:29.208Z,65.59
2023-05-11T00:10:31.290Z,65.86
2023-05-11T00:11:33.246Z,66.29
2023-05-11T00:12:35.121Z,66.33
2023-05-11T00:13:36.976Z,66.41
2023-05-11T00:14:39.489Z,66.83
2023-05-11T00:15:41.681Z,67.80
2023-05-11T00:16:43.796Z,69.42
2023-05-11T00:17:45.709Z,68.66
2023-05-11T00:18:47.808Z,68.38
2023-05-11T00:19:49.810Z,67.36
2023-05-11T00:20:51.755Z,67.07
2023-05-11T00:21:53.919Z,67.43
2023-05-11T00:22:55.924Z,66.42
2023-05-11T00:23:57.790Z,66.40
2023-05-11T00:24:59.729Z,66.38
2023-05-11T00:26:01.575Z,65.98
2023-05-11T00:27:03.611Z,65.90
2023-05-11T00:28:05.475Z,66.17
2023-05-11T00:29:08.483Z,66.67
2023-05-11T00:30:11.871Z,66.79
2023-05-11T00:31:13.762Z,66.99
2023-05-11T00:32:15.809Z,67.38
2023-05-11T00:33:17.676Z,67.17
2023-05-11T00:34:19.541Z,66.41
2023-05-11T00:35:22.869Z,66.11
2023-05-11T00:36:24.818Z,66.30
2023-05-11T00:37:26.792Z,66.20
2023-05-11T00:38:29.189Z,66.25
2023-05-11T00:39:31.089Z,66.11
2023-05-11T00:40:33.643Z,66.60
2023-05-11T00:41:35.602Z,66.54
2023-05-11T00:42:37.478Z,66.74
2023-05-11T00:43:39.966Z,67.07
2023-05-11T00:44:41.810Z,67.07
2023-05-11T00:45:43.671Z,67.15
2023-05-11T00:46:45.644Z,67.43
2023-05-11T00:47:47.788Z,67.70
2023-05-11T00:48:49.672Z,68.02
2023-05-11T00:49:53.200Z,68.33
2023-05-11T00:50:55.412Z,69.08
2023-05-11T00:51:57.389Z,68.74
2023-05-11T00:52:59.329Z,69.33
2023-05-11T00:54:01.894Z,68.47
2023-05-11T00:55:04.389Z,68.32
2023-05-11T00:56:07.899Z,68.18
2023-05-11T00:57:09.826Z,68.18
2023-05-11T00:58:12.092Z,68.61
2023-05-11T00:59:13.995Z,68.71
2023-05-11T01:00:17.127Z,68.65
2023-05-11T01:01:19.382Z,69.09
2023-05-11T01:02:21.692Z,69.43
2023-05-11T01:03:24.143Z,69.57
2023-05-11T01:04:26.943Z,69.56
2023-05-11T01:05:35.495Z,69.72
2023-05-11T01:06:44.305Z,69.64
2023-05-11T01:07:56.495Z,69.75
2023-05-11T01:09:04.990Z,69.57
2023-05-11T01:10:17.050Z,69.65
2023-05-11T01:11:31.970Z,69.45
2023-05-11T01:12:46.830Z,69.15
2023-05-11T01:13:58.369Z,68.88
2023-05-11T01:15:06.581Z,68.54
2023-05-11T01:16:16.437Z,69.35
2023-05-11T01:17:25.218Z,70.06
2023-05-11T01:18:39.998Z,70.94
2023-05-11T01:19:51.895Z,70.64
2023-05-11T01:21:00.661Z,71.32
2023-05-11T01:23:45.562Z,71.83
2023-05-11T01:24:54.222Z,73.33
2023-05-11T01:26:05.577Z,75.01
2023-05-11T01:27:18.651Z,74.16
2023-05-11T01:28:44.031Z,76.69
2023-05-11T01:30:14.352Z,75.63
2023-05-11T01:31:18.671Z,76.62
2023-05-11T01:32:24.328Z,75.91
2023-05-11T01:33:30.166Z,75.03
2023-05-11T01:34:36.846Z,73.89
2023-05-11T01:35:42.544Z,73.23
2023-05-11T01:36:54.526Z,72.92
2023-05-11T01:37:59.050Z,72.59
2023-05-11T01:39:04.841Z,72.19
2023-05-11T01:40:13.528Z,71.75
2023-05-11T01:41:18.344Z,71.68
2023-05-11T01:42:26.866Z,71.90
2023-05-11T01:43:32.043Z,71.41
2023-05-11T01:44:36.793Z,70.93
2023-05-11T01:45:42.479Z,70.52
2023-05-11T01:46:46.020Z,70.21
2023-05-11T01:47:50.254Z,70.29
2023-05-11T01:48:55.664Z,70.93
2023-05-11T01:50:00.209Z,70.63
2023-05-11T01:51:03.027Z,70.57
2023-05-11T01:52:07.369Z,70.83
2023-05-11T01:53:11.970Z,70.58
2023-05-11T01:54:15.712Z,70.67
2023-05-11T01:55:20.998Z,70.27
2023-05-11T01:56:26.050Z,70.07
2023-05-11T01:57:29.967Z,70.51
2023-05-11T01:58:35.441Z,70.56
2023-05-11T01:59:39.474Z,70.38
2023-05-11T02:00:43.651Z,71.17
2023-05-11T02:01:46.263Z,70.72
2023-05-11T02:02:49.500Z,70.81
2023-05-11T02:03:53.702Z,70.41
2023-05-11T02:04:58.712Z,70.53
2023-05-11T02:06:04.224Z,70.69
2023-05-11T02:07:09.790Z,70.66
2023-05-11T02:08:13.735Z,71.23
2023-05-11T02:09:18.263Z,71.30
2023-05-11T02:10:23.033Z,71.14
2023-05-11T02:11:27.424Z,70.87
2023-05-11T02:12:31.500Z,70.54
2023-05-11T02:13:37.117Z,70.49
2023-05-11T02:14:40.724Z,70.24
2023-05-11T02:15:44.267Z,70.25
2023-05-11T02:16:49.059Z,69.87
2023-05-11T02:17:53.865Z,69.96
2023-05-11T02:18:58.549Z,70.55
2023-05-11T02:20:02.358Z,71.47
2023-05-11T02:21:06.747Z,71.27
2023-05-11T02:22:09.290Z,71.61
2023-05-11T02:23:12.285Z,71.61
2023-05-11T02:24:15.242Z,71.21
2023-05-11T02:25:17.912Z,70.91
2023-05-11T02:26:20.297Z,70.83
2023-05-11T02:27:22.129Z,70.90
2023-05-11T02:28:24.306Z,70.76
2023-05-11T02:29:26.987Z,71.43
2023-05-11T02:30:31.864Z,70.98
2023-05-11T02:31:37.618Z,70.29
2023-05-11T02:32:50.424Z,70.22
2023-05-11T02:33:56.127Z,70.24
2023-05-11T02:35:07.193Z,71.15
2023-05-11T02:36:11.445Z,72.62
2023-05-11T02:37:17.101Z,74.63
2023-05-11T02:38:20.566Z,74.01
2023-05-11T02:39:26.244Z,74.34
2023-05-11T02:40:35.436Z,74.63
2023-05-11T02:41:41.118Z,74.38
2023-05-11T02:42:44.937Z,74.30
2023-05-11T02:43:50.491Z,74.03
2023-05-11T02:45:05.027Z,73.39
2023-05-11T02:46:10.834Z,73.49
2023-05-11T02:47:14.759Z,73.77
2023-05-11T02:48:26.431Z,75.06
2023-05-11T02:49:31.446Z,74.64
2023-05-11T02:50:37.043Z,74.57
2023-05-11T02:51:44.438Z,74.68
2023-05-11T02:52:49.046Z,74.13
2023-05-11T02:53:54.113Z,73.72
2023-05-11T02:54:58.175Z,73.36
2023-05-11T02:56:01.597Z,73.12
2023-05-11T02:57:03.827Z,73.06
2023-05-11T02:58:05.995Z,73.48
2023-05-11T02:59:08.549Z,73.69
2023-05-11T03:00:12.352Z,72.76
2023-05-11T03:01:15.028Z,72.13
2023-05-11T03:02:17.070Z,71.88
2023-05-11T03:03:19.423Z,72.17
2023-05-11T03:04:22.320Z,72.53
2023-05-11T03:05:24.433Z,72.79
2023-05-11T03:06:26.875Z,74.20
2023-05-11T03:07:28.744Z,74.01
2023-05-11T03:08:30.711Z,73.89
2023-05-11T03:09:33.641Z,74.05
2023-05-11T03:10:35.991Z,73.90
2023-05-11T03:11:38.472Z,73.66
2023-05-11T03:12:40.529Z,74.67
2023-05-11T03:13:43.406Z,74.71
2023-05-11T03:14:46.430Z,74.90
2023-05-11T03:15:50.151Z,75.09
2023-05-11T03:16:54.381Z,74.68
2023-05-11T03:17:59.067Z,74.41
2023-05-11T03:19:02.186Z,74.26
2023-05-11T03:20:07.122Z,74.41
2023-05-11T03:21:09.654Z,74.24
2023-05-11T03:22:12.541Z,74.32
2023-05-11T03:23:17.178Z,74.42
2023-05-11T03:24:20.983Z,74.23
2023-05-11T03:25:24.245Z,73.97
2023-05-11T03:26:29.194Z,74.36
2023-05-11T03:27:32.656Z,76.14
2023-05-11T03:28:36.274Z,75.81
2023-05-11T03:29:39.987Z,76.26
2023-05-11T03:30:45.145Z,75.76
2023-05-11T03:31:50.398Z,75.93
2023-05-11T03:32:52.355Z,74.98
2023-05-11T03:33:54.552Z,74.65
2023-05-11T03:34:56.596Z,74.61
2023-05-11T03:35:59.990Z,74.60
2023-05-11T03:37:05.056Z,74.61
2023-05-11T03:38:07.875Z,74.40
2023-05-11T03:39:11.855Z,74.38
2023-05-11T03:40:16.418Z,74.19
2023-05-11T03:41:19.642Z,73.98
2023-05-11T03:42:22.667Z,74.60
2023-05-11T03:43:28.116Z,74.66
2023-05-11T03:44:33.117Z,76.08
2023-05-11T03:45:37.071Z,75.82
2023-05-11T03:46:41.372Z,75.83
2023-05-11T03:47:46.093Z,75.80
2023-05-11T03:48:49.361Z,76.21
2023-05-11T03:49:52.631Z,76.21
2023-05-11T03:50:56.006Z,75.30
2023-05-11T03:51:59.129Z,76.89
2023-05-11T03:53:02.411Z,77.97
2023-05-11T03:54:06.554Z,78.22
2023-05-11T03:55:09.829Z,77.90
2023-05-11T03:56:12.641Z,77.94
2023-05-11T03:57:15.046Z,77.69
2023-05-11T03:58:16.988Z,77.32
2023-05-11T03:59:19.394Z,77.09
2023-05-11T04:00:21.483Z,76.97
2023-05-11T04:01:23.746Z,76.72
2023-05-11T04:02:25.738Z,76.27
2023-05-11T04:03:28.067Z,74.97
2023-05-11T04:04:31.233Z,74.84
2023-05-11T04:05:33.940Z,74.20
2023-05-11T04:06:35.912Z,74.22
2023-05-11T04:07:38.848Z,73.92
2023-05-11T04:08:40.735Z,73.53
2023-05-11T04:09:42.806Z,73.90
2023-05-11T04:10:44.781Z,73.93
2023-05-11T04:11:46.635Z,73.88
2023-05-11T04:12:48.509Z,74.09
2023-05-11T04:13:50.454Z,74.85
2023-05-11T04:14:52.343Z,73.93
2023-05-11T04:15:54.518Z,73.89
2023-05-11T04:16:56.644Z,73.33
2023-05-11T04:17:58.668Z,73.13
2023-05-11T04:19:01.201Z,73.07
2023-05-11T04:20:04.768Z,74.09
2023-05-11T04:21:06.613Z,75.12
2023-05-11T04:22:08.500Z,76.43
2023-05-11T04:23:10.603Z,77.13
2023-05-11T04:24:12.690Z,76.08
2023-05-11T04:25:15.552Z,74.33
2023-05-11T04:26:17.600Z,73.59
2023-05-11T04:27:19.470Z,72.77
2023-05-11T04:28:21.959Z,72.04
2023-05-11T04:29:24.567Z,71.73
2023-05-11T04:30:26.733Z,72.31
2023-05-11T04:31:28.924Z,71.93
2023-05-11T04:32:31.079Z,72.34
2023-05-11T04:33:32.975Z,71.69
2023-05-11T04:34:34.908Z,71.74
2023-05-11T04:35:38.875Z,71.19
2023-05-11T04:36:40.918Z,71.31
2023-05-11T04:37:42.878Z,71.92
2023-05-11T04:38:44.955Z,71.22
2023-05-11T04:39:46.815Z,70.43
2023-05-11T04:40:49.503Z,70.53
2023-05-11T04:41:51.372Z,70.12
2023-05-11T04:42:53.339Z,69.57
2023-05-11T04:43:55.216Z,69.41
2023-05-11T04:44:57.089Z,69.72
2023-05-11T04:45:59.896Z,69.36
2023-05-11T04:47:02.275Z,69.11
2023-05-11T04:48:05.204Z,68.43
2023-05-11T04:49:07.380Z,68.03
2023-05-11T04:50:10.107Z,67.79
2023-05-11T04:51:11.976Z,67.83
2023-05-11T04:52:13.824Z,68.06
2023-05-11T04:53:15.738Z,67.70
2023-05-11T04:54:17.950Z,67.48
2023-05-11T04:55:20.785Z,67.87
2023-05-11T04:56:22.979Z,67.41
2023-05-11T04:57:25.120Z,67.41
2023-05-11T04:58:27.922Z,66.81
2023-05-11T04:59:29.904Z,65.95
2023-05-11T05:00:31.972Z,65.06
2023-05-11T05:01:34.231Z,65.01
2023-05-11T05:02:36.560Z,64.62
2023-05-11T05:03:38.778Z,63.89
2023-05-11T05:04:40.668Z,63.40
2023-05-11T05:05:42.504Z,63.06
2023-05-11T05:06:45.170Z,62.83
2023-05-11T05:07:47.127Z,62.38
2023-05-11T05:08:49.175Z,61.77
2023-05-11T05:09:51.184Z,61.57
2023-05-11T05:10:53.121Z,61.47
2023-05-11T05:11:55.094Z,61.09
2023-05-11T05:12:56.958Z,61.01
2023-05-11T05:13:58.830Z,61.00
2023-05-11T05:15:00.709Z,60.16
2023-05-11T05:16:03.479Z,59.38
2023-05-11T05:17:05.594Z,59.58
2023-05-11T05:18:07.752Z,59.03
2023-05-11T05:19:09.895Z,58.54
2023-05-11T05:20:12.133Z,58.19
2023-05-11T05:21:13.970Z,57.75
2023-05-11T05:22:15.806Z,56.56
2023-05-11T05:23:17.736Z,55.87
2023-05-11T05:24:19.594Z,55.03
2023-05-11T05:25:21.498Z,54.93
2023-05-11T05:26:23.783Z,55.33
2023-05-11T05:27:26.092Z,54.96
2023-05-11T05:28:27.968Z,54.72
2023-05-11T05:29:29.779Z,54.60
2023-05-11T05:30:32.398Z,54.27
2023-05-11T05:31:34.621Z,53.91
2023-05-11T05:32:36.605Z,53.65
2023-05-11T05:33:38.591Z,53.49
2023-05-11T05:34:40.492Z,52.62
2023-05-11T05:35:42.356Z,51.93
2023-05-11T05:36:44.334Z,52.04
2023-05-11T05:37:46.310Z,52.05
2023-05-11T05:38:48.134Z,51.56
2023-05-11T05:39:50.045Z,51.53
2023-05-11T05:40:52.020Z,51.85
2023-05-11T05:41:53.981Z,51.75
2023-05-11T05:42:55.816Z,51.64
2023-05-11T05:43:58.138Z,50.90
2023-05-11T05:45:00.817Z,50.73
2023-05-11T05:46:02.851Z,50.79
2023-05-11T05:47:05.196Z,50.52
2023-05-11T05:48:07.188Z,49.34
2023-05-11T05:49:10.171Z,47.98
2023-05-11T05:50:12.957Z,47.26
2023-05-11T05:51:14.917Z,46.42
2023-05-11T05:52:17.714Z,46.38
2023-05-11T05:53:20.087Z,45.85
2023-05-11T05:54:22.931Z,45.98
2023-05-11T05:55:24.785Z,46.19
2023-05-11T05:56:26.912Z,45.75
2023-05-11T05:57:29.001Z,44.96
2023-05-11T05:58:30.927Z,44.53
2023-05-11T05:59:32.920Z,44.35
2023-05-11T06:00:35.001Z,43.59
2023-05-11T06:01:36.973Z,42.95
2023-05-11T06:02:39.129Z,43.73
2023-05-11T06:03:41.352Z,43.21
2023-05-11T06:04:43.824Z,42.73
2023-05-11T06:05:45.917Z,42.73
2023-05-11T06:06:48.022Z,42.49
2023-05-11T06:08:01.843Z,41.69
2023-05-11T06:08:53.694Z,41.82
2023-05-11T06:09:55.551Z,41.71
2023-05-11T06:10:57.635Z,41.21
2023-05-11T06:11:59.527Z,40.91
2023-05-11T06:13:01.425Z,40.60
2023-05-11T06:14:03.500Z,40.17
2023-05-11T06:15:06.754Z,40.44
2023-05-11T06:16:08.795Z,38.20
2023-05-11T06:17:10.855Z,37.52
2023-05-11T06:18:12.870Z,37.82
2023-05-11T06:19:14.879Z,37.42
2023-05-11T06:20:17.363Z,37.49
2023-05-11T06:21:20.072Z,37.33
2023-05-11T06:22:22.164Z,37.29
2023-05-11T06:23:24.813Z,37.42
2023-05-11T06:24:26.750Z,36.87
2023-05-11T06:25:28.859Z,36.58
2023-05-11T06:26:32.893Z,36.26
2023-05-11T06:27:34.833Z,36.11
2023-05-11T06:28:36.679Z,35.64
2023-05-11T06:29:38.670Z,35.09
2023-05-11T06:30:40.718Z,34.89
2023-05-11T06:31:42.660Z,34.87
2023-05-11T06:32:44.595Z,34.28
2023-05-11T06:33:46.533Z,34.31
2023-05-11T06:34:48.451Z,33.84
2023-05-11T06:35:50.401Z,33.79
2023-05-11T06:36:52.351Z,34.11
2023-05-11T06:37:54.248Z,33.57
2023-05-11T06:38:56.116Z,33.29
2023-05-11T06:39:58.615Z,33.47
2023-05-11T06:41:00.728Z,34.08
2023-05-11T06:42:06.389Z,33.48
2023-05-11T06:43:07.576Z,33.29
2023-05-11T06:44:09.542Z,33.23
2023-05-11T06:45:11.581Z,33.68
2023-05-11T06:46:13.937Z,33.45
2023-05-11T06:47:15.993Z,32.84
2023-05-11T06:48:17.899Z,32.10
2023-05-11T06:49:19.882Z,32.51
2023-05-11T06:50:25.112Z,32.54
2023-05-11T06:51:26.607Z,32.53
2023-05-11T06:52:28.597Z,32.60
2023-05-11T06:53:30.598Z,32.72
2023-05-11T06:54:33.354Z,33.06
2023-05-11T06:55:35.570Z,32.48
2023-05-11T06:56:37.628Z,32.20
2023-05-11T06:57:40.156Z,32.18
2023-05-11T06:58:42.283Z,31.79
2023-05-11T06:59:44.148Z,31.43
2023-05-11T07:00:46.161Z,31.44
2023-05-11T07:01:49.249Z,31.81
2023-05-11T07:02:51.240Z,32.17
2023-05-11T07:03:56.377Z,32.00
2023-05-11T07:04:58.449Z,32.25
2023-05-11T07:06:00.552Z,32.24
2023-05-11T07:07:02.701Z,32.30
2023-05-11T07:08:05.308Z,32.25
2023-05-11T07:09:07.148Z,31.87
2023-05-11T07:10:10.172Z,32.36
2023-05-11T07:11:12.532Z,32.68
2023-05-11T07:12:15.535Z,32.72
2023-05-11T07:13:17.367Z,32.68
2023-05-11T07:14:19.457Z,32.75
2023-05-11T07:15:21.546Z,32.85
2023-05-11T07:16:23.718Z,32.38
2023-05-11T07:17:25.699Z,31.77
2023-05-11T07:18:27.754Z,31.30
2023-05-11T07:19:29.706Z,31.45
2023-05-11T07:20:31.636Z,30.94
2023-05-11T07:21:35.081Z,30.76
2023-05-11T07:22:36.992Z,30.66
2023-05-11T07:23:39.135Z,30.49
2023-05-11T07:24:41.073Z,29.87
2023-05-11T07:25:43.171Z,30.26
2023-05-11T07:26:45.163Z,30.10
2023-05-11T07:27:47.020Z,30.46
2023-05-11T07:28:48.878Z,31.06
2023-05-11T07:29:50.751Z,31.09
2023-05-11T07:30:52.815Z,31.50
2023-05-11T07:31:54.780Z,30.59
2023-05-11T07:32:57.281Z,30.44
2023-05-11T07:33:59.251Z,30.51
2023-05-11T07:35:01.127Z,30.75
2023-05-11T07:36:03.193Z,30.98
2023-05-11T07:37:05.057Z,29.76
2023-05-11T07:38:06.923Z,29.33
2023-05-11T07:39:10.226Z,29.09
2023-05-11T07:40:12.355Z,29.46
2023-05-11T07:41:14.676Z,29.10
2023-05-11T07:42:16.643Z,28.42
2023-05-11T07:43:18.741Z,28.22
2023-05-11T07:44:20.765Z,28.57
2023-05-11T07:45:22.639Z,28.74
2023-05-11T07:46:24.739Z,28.57
2023-05-11T07:47:27.380Z,28.38
2023-05-11T07:48:29.299Z,29.02
2023-05-11T07:49:43.008Z,29.32
2023-05-11T07:50:35.188Z,29.38
2023-05-11T07:51:37.093Z,29.29
2023-05-11T07:52:39.069Z,29.45
2023-05-11T07:53:41.044Z,30.10
2023-05-11T07:54:43.944Z,30.65
2023-05-11T07:55:46.172Z,29.94
2023-05-11T07:56:50.157Z,29.19
2023-05-11T07:57:53.450Z,29.14
2023-05-11T07:58:55.416Z,29.42
2023-05-11T07:59:57.299Z,29.64
2023-05-11T08:00:59.232Z,29.68
2023-05-11T08:02:01.225Z,29.72
2023-05-11T08:03:03.447Z,30.69
2023-05-11T08:04:05.473Z,30.71
2023-05-11T08:05:08.248Z,30.02
2023-05-11T08:06:10.890Z,29.51
2023-05-11T08:07:12.931Z,28.36
2023-05-11T08:08:14.787Z,27.90
2023-05-11T08:09:16.661Z,27.12
2023-05-11T08:10:19.065Z,26.89
2023-05-11T08:11:21.228Z,26.92
2023-05-11T08:12:23.123Z,27.36
2023-05-11T08:13:25.981Z,28.29
2023-05-11T08:14:28.025Z,28.42
2023-05-11T08:15:30.066Z,27.83
2023-05-11T08:16:32.267Z,28.02
2023-05-11T08:17:34.505Z,27.56
2023-05-11T08:18:36.588Z,26.95
2023-05-11T08:19:38.486Z,27.29
2023-05-11T08:20:40.435Z,27.48
2023-05-11T08:21:42.284Z,27.28
2023-05-11T08:22:44.494Z,26.83
2023-05-11T08:23:46.451Z,26.38
2023-05-11T08:24:50.440Z,26.16
2023-05-11T08:25:55.794Z,26.10
2023-05-11T08:26:58.039Z,25.43
2023-05-11T08:28:01.330Z,25.70
2023-05-11T08:29:03.466Z,25.87
2023-05-11T08:30:07.219Z,25.95
2023-05-11T08:31:10.202Z,26.02
2023-05-11T08:32:12.247Z,25.50
2023-05-11T08:33:33.681Z,25.21
2023-05-11T08:34:20.135Z,25.31
2023-05-11T08:35:22.338Z,25.79
2023-05-11T08:36:24.622Z,26.32
2023-05-11T08:37:26.698Z,25.97
2023-05-11T08:38:28.667Z,26.11
2023-05-11T08:39:46.126Z,26.28
2023-05-11T08:40:37.146Z,26.06
2023-05-11T08:41:39.611Z,26.45
2023-05-11T08:42:44.790Z,26.94
2023-05-11T08:43:47.830Z,26.94
2023-05-11T08:44:52.179Z,27.15
2023-05-11T08:45:58.018Z,26.87
2023-05-11T08:47:20.514Z,26.73
2023-05-11T08:48:05.404Z,26.85
2023-05-11T08:49:08.632Z,26.76
2023-05-11T08:50:11.103Z,26.43
2023-05-11T08:51:13.410Z,26.80
2023-05-11T08:52:17.483Z,26.44
2023-05-11T08:53:19.498Z,25.81
2023-05-11T08:54:21.419Z,25.93
2023-05-11T08:55:25.897Z,25.77
2023-05-11T08:56:29.268Z,26.17
2023-05-11T08:57:33.737Z,27.99
2023-05-11T08:58:37.400Z,28.29
2023-05-11T08:59:42.590Z,29.07
2023-05-11T09:00:45.818Z,28.66
2023-05-11T09:01:50.404Z,28.62
2023-05-11T09:02:52.669Z,28.46
2023-05-11T09:03:56.453Z,28.51
2023-05-11T09:04:59.392Z,29.38
2023-05-11T09:06:04.300Z,29.27
2023-05-11T09:07:06.807Z,29.06
2023-05-11T09:08:11.763Z,29.15
2023-05-11T09:09:15.049Z,29.58
2023-05-11T09:10:18.091Z,29.70
2023-05-11T09:11:21.243Z,29.54
2023-05-11T09:12:23.974Z,29.94
2023-05-11T09:13:26.634Z,29.94
2023-05-11T09:14:29.489Z,29.80
2023-05-11T09:15:36.895Z,29.31
2023-05-11T09:16:37.596Z,29.07
2023-05-11T09:17:39.633Z,28.83
2023-05-11T09:18:53.151Z,28.30
2023-05-11T09:20:06.673Z,27.92
2023-05-11T09:21:08.709Z,27.63
2023-05-11T09:22:10.584Z,27.43
2023-05-11T09:23:17.795Z,27.54
2023-05-11T09:24:20.655Z,28.32
2023-05-11T09:25:23.946Z,28.37
2023-05-11T09:26:26.142Z,28.36
2023-05-11T09:27:28.004Z,27.82
2023-05-11T09:28:36.060Z,28.47
2023-05-11T09:29:33.664Z,28.11
2023-05-11T09:30:35.608Z,27.97
2023-05-11T09:31:43.518Z,28.31
2023-05-11T09:32:55.315Z,28.27
2023-05-11T09:34:18.870Z,28.05
2023-05-11T09:36:33.737Z,27.75
2023-05-11T09:37:35.970Z,28.35
2023-05-11T09:38:38.201Z,28.25
2023-05-11T09:39:53.332Z,28.53
2023-05-11T09:40:52.320Z,28.88
2023-05-11T09:42:15.460Z,28.80
2023-05-11T09:43:21.813Z,28.43
2023-05-11T09:44:27.559Z,28.45
2023-05-11T09:46:45.667Z,29.02
2023-05-11T09:47:49.107Z,28.86
2023-05-11T09:48:55.934Z,28.73
2023-05-11T09:49:57.848Z,28.94
2023-05-11T09:51:03.550Z,28.77
2023-05-11T09:52:05.624Z,28.21
2023-05-11T09:53:08.558Z,28.47
2023-05-11T09:54:19.092Z,28.14
2023-05-11T09:55:21.230Z,27.98
2023-05-11T09:56:23.270Z,28.07
2023-05-11T09:57:31.013Z,27.99
2023-05-11T09:58:55.110Z,27.80
2023-05-11T10:00:01.064Z,28.24
2023-05-11T10:01:03.155Z,27.98
2023-05-11T10:02:23.531Z,28.02
2023-05-11T10:03:26.016Z,28.04
2023-05-11T10:04:29.259Z,27.85
2023-05-11T10:05:33.217Z,27.51
2023-05-11T10:06:47.256Z,27.41
2023-05-11T10:07:58.656Z,27.58
2023-05-11T10:09:09.050Z,27.79
2023-05-11T10:10:13.016Z,28.32
2023-05-11T10:11:15.455Z,28.38
2023-05-11T10:12:20.793Z,27.88
2023-05-11T10:13:27.190Z,27.75
2023-05-11T10:14:31.482Z,27.64
2023-05-11T10:15:34.767Z,27.36
2023-05-11T10:16:38.266Z,27.55
2023-05-11T10:17:41.131Z,27.64
2023-05-11T10:18:43.897Z,27.53
2023-05-11T10:19:48.458Z,28.09
2023-05-11T10:20:50.977Z,27.90
2023-05-11T10:21:56.151Z,28.31
2023-05-11T10:22:58.662Z,28.30
2023-05-11T10:24:02.831Z,28.19
2023-05-11T10:25:07.318Z,27.98
2023-05-11T10:26:11.085Z,27.96
2023-05-11T10:27:13.778Z,28.49
2023-05-11T10:28:16.565Z,28.69
2023-05-11T10:29:19.112Z,28.70
2023-05-11T10:30:22.185Z,28.82
2023-05-11T10:31:25.321Z,28.79
2023-05-11T10:32:29.199Z,28.80
2023-05-11T10:33:32.416Z,29.05
2023-05-11T10:34:35.103Z,28.88
2023-05-11T10:35:38.081Z,28.80
2023-05-11T10:36:40.129Z,28.74
2023-05-11T10:37:42.012Z,28.86
2023-05-11T10:38:44.054Z,28.31
2023-05-11T10:39:49.257Z,27.95
2023-05-11T10:40:53.322Z,27.67
2023-05-11T10:42:14.324Z,27.94
2023-05-11T10:43:38.178Z,27.58
2023-05-11T10:44:55.711Z,27.59
2023-05-11T10:47:38.732Z,27.69
2023-05-11T10:50:38.699Z,27.68
2023-05-11T10:52:01.985Z,27.08
2023-05-11T10:53:13.368Z,27.08
2023-05-11T10:54:26.482Z,26.87
2023-05-11T10:55:47.337Z,27.09
2023-05-11T10:57:03.424Z,26.96
2023-05-11T10:58:11.913Z,26.59
2023-05-11T11:00:47.990Z,26.79
2023-05-11T11:01:51.936Z,27.82
2023-05-11T11:02:54.046Z,27.90
2023-05-11T11:03:57.987Z,27.79
2023-05-11T11:05:00.007Z,28.06
2023-05-11T11:06:02.856Z,28.57
2023-05-11T11:07:06.179Z,28.30
2023-05-11T11:08:08.608Z,28.08
2023-05-11T11:09:13.028Z,28.49
2023-05-11T11:10:20.413Z,28.57
2023-05-11T11:11:36.012Z,28.57
2023-05-11T11:12:38.247Z,29.14
2023-05-11T11:13:58.139Z,28.51
2023-05-11T11:15:03.325Z,28.51
2023-05-11T11:16:07.795Z,28.70
2023-05-11T11:17:20.322Z,28.89
2023-05-11T11:18:25.613Z,28.52
2023-05-11T11:19:34.554Z,28.76
2023-05-11T11:20:58.188Z,28.74
2023-05-11T11:22:01.807Z,29.12
2023-05-11T11:23:03.674Z,29.09
2023-05-11T11:24:05.860Z,28.97
2023-05-11T11:25:12.057Z,28.67
2023-05-11T11:26:16.816Z,28.49
2023-05-11T11:27:18.697Z,28.48
2023-05-11T11:28:20.678Z,28.16
2023-05-11T11:29:22.652Z,28.38
2023-05-11T11:30:27.602Z,28.14
2023-05-11T11:31:32.506Z,27.54
2023-05-11T11:32:34.737Z,27.42
2023-05-11T11:33:36.746Z,27.20
2023-05-11T11:34:38.623Z,26.94
2023-05-11T11:35:44.627Z,26.84
2023-05-11T11:36:59.502Z,26.64
2023-05-11T11:38:06.716Z,26.83
2023-05-11T11:39:08.599Z,26.39
2023-05-11T11:40:15.329Z,27.09
2023-05-11T11:41:27.566Z,27.23
2023-05-11T11:42:33.211Z,27.53
2023-05-11T11:43:44.223Z,27.91
2023-05-11T11:44:46.307Z,28.31
2023-05-11T11:46:01.956Z,28.82
2023-05-11T11:47:16.263Z,29.16
2023-05-11T11:48:36.852Z,29.00
2023-05-11T11:49:40.476Z,29.00
2023-05-11T11:50:44.838Z,28.97
2023-05-11T11:51:46.863Z,28.98
2023-05-11T11:52:48.912Z,29.14
2023-05-11T11:53:54.511Z,29.10
2023-05-11T11:54:58.554Z,29.16
2023-05-11T11:56:00.442Z,29.14
2023-05-11T11:57:02.557Z,29.17
2023-05-11T11:58:04.420Z,29.44
2023-05-11T11:59:06.501Z,29.54
2023-05-11T12:00:10.687Z,29.99
2023-05-11T12:01:15.391Z,30.18
2023-05-11T12:02:18.475Z,30.27
2023-05-11T12:03:24.209Z,29.97
2023-05-11T12:05:51.938Z,29.24
2023-05-11T12:06:57.818Z,29.51
2023-05-11T12:08:03.497Z,28.91
2023-05-11T12:09:08.437Z,28.76
2023-05-11T12:10:13.475Z,28.62
2023-05-11T12:11:16.990Z,28.91
2023-05-11T12:12:20.181Z,28.70
2023-05-11T12:13:26.755Z,28.75
2023-05-11T12:14:31.486Z,28.49
2023-05-11T12:15:33.463Z,28.13
2023-05-11T12:16:35.484Z,27.84
2023-05-11T12:17:38.281Z,27.54
2023-05-11T12:18:41.886Z,27.53
2023-05-11T12:19:44.491Z,27.54
2023-05-11T12:20:46.772Z,27.35
2023-05-11T12:21:48.602Z,27.40
2023-05-11T12:22:50.737Z,27.50
2023-05-11T12:23:58.549Z,27.59
2023-05-11T12:25:06.346Z,27.85
2023-05-11T12:26:08.626Z,27.67
2023-05-11T12:27:10.703Z,27.74
2023-05-11T12:28:12.661Z,27.87
2023-05-11T12:29:14.955Z,27.83
2023-05-11T12:30:22.582Z,27.82
2023-05-11T12:31:24.576Z,28.21
2023-05-11T12:32:30.894Z,28.34
2023-05-11T12:33:32.920Z,28.32
2023-05-11T12:34:34.756Z,28.39
2023-05-11T12:35:36.634Z,29.13
2023-05-11T12:36:38.589Z,29.38
2023-05-11T12:37:43.578Z,29.33
2023-05-11T12:38:46.994Z,29.73
2023-05-11T12:39:55.264Z,29.69
2023-05-11T12:40:57.243Z,29.41
2023-05-11T12:41:59.255Z,29.81
2023-05-11T12:43:01.125Z,29.58
2023-05-11T12:44:03.437Z,29.55
2023-05-11T12:45:07.040Z,29.41
2023-05-11T12:46:09.586Z,29.04
2023-05-11T12:47:12.430Z,29.06
2023-05-11T12:48:15.668Z,29.46
2023-05-11T12:49:26.192Z,29.52
2023-05-11T12:50:27.328Z,29.71
2023-05-11T12:51:44.689Z,29.13
2023-05-11T12:52:47.589Z,29.51
2023-05-11T12:53:49.473Z,28.73
2023-05-11T12:54:51.630Z,28.96
2023-05-11T12:55:58.521Z,28.43
2023-05-11T12:57:01.860Z,28.52
2023-05-11T12:58:16.746Z,28.65
2023-05-11T12:59:33.450Z,29.12
2023-05-11T13:00:35.815Z,29.33
2023-05-11T13:01:37.783Z,29.08
2023-05-11T13:02:51.290Z,28.92
2023-05-11T13:03:53.359Z,28.65
2023-05-11T13:04:55.312Z,28.57
2023-05-11T13:06:11.387Z,28.67
2023-05-11T13:07:15.989Z,28.85
2023-05-11T13:08:19.225Z,28.65
2023-05-11T13:09:26.269Z,28.53
2023-05-11T13:10:28.943Z,28.63
2023-05-11T13:11:31.159Z,28.87
2023-05-11T13:12:33.232Z,29.59
2023-05-11T13:13:35.161Z,29.59
2023-05-11T13:14:38.208Z,29.62
2023-05-11T13:15:50.784Z,29.42
2023-05-11T13:16:53.408Z,29.36
2023-05-11T13:17:57.966Z,29.51
2023-05-11T13:20:21.555Z,29.66
2023-05-11T13:21:23.794Z,29.88
2023-05-11T13:22:25.724Z,30.35
2023-05-11T13:23:28.569Z,30.19
2023-05-11T13:24:32.232Z,30.05
2023-05-11T13:25:50.468Z,30.05
2023-05-11T13:26:54.186Z,30.19
2023-05-11T13:27:56.216Z,30.10
2023-05-11T13:29:06.277Z,29.86
2023-05-11T13:30:04.061Z,29.75
2023-05-11T13:31:05.959Z,29.79
2023-05-11T13:32:08.031Z,30.37
2023-05-11T13:33:10.402Z,30.18
2023-05-11T13:34:12.870Z,30.28
2023-05-11T13:35:15.245Z,30.57
2023-05-11T13:36:18.033Z,30.19
2023-05-11T13:37:19.877Z,30.17
2023-05-11T13:38:21.772Z,30.22
2023-05-11T13:39:23.644Z,30.97
2023-05-11T13:40:25.724Z,30.43
2023-05-11T13:41:27.661Z,30.20
2023-05-11T13:42:29.551Z,29.87
2023-05-11T13:43:31.532Z,29.79
2023-05-11T13:44:33.404Z,29.52
2023-05-11T13:45:35.408Z,29.19
2023-05-11T13:46:37.710Z,28.86
2023-05-11T13:47:39.740Z,29.00
2023-05-11T13:48:41.766Z,28.64
2023-05-11T13:49:43.857Z,28.50
2023-05-11T13:50:45.939Z,29.04
2023-05-11T13:51:47.780Z,29.04
2023-05-11T13:52:50.624Z,28.96
2023-05-11T13:53:52.494Z,29.16
2023-05-11T13:54:54.356Z,29.27
2023-05-11T13:55:56.282Z,29.59
2023-05-11T13:56:58.423Z,29.45